createdAt,value
2023-11-10T07:47:07.399Z,39.09
2023-11-10T07:47:18.630Z,38.84
2023-11-10T07:47:30.167Z,38.61
2023-11-10T07:47:41.448Z,38.54
2023-11-10T07:47:53.172Z,38.49
2023-11-10T07:48:04.697Z,38.49
2023-11-10T07:48:16.224Z,38.47
2023-11-10T07:48:27.495Z,38.46
2023-11-10T07:48:39.032Z,38.43
2023-11-10T07:48:50.339Z,38.41
2023-11-10T07:49:01.910Z,38.40
2023-11-10T07:49:13.164Z,38.39
2023-11-10T07:49:24.692Z,38.36
2023-11-10T07:49:35.985Z,38.36
2023-11-10T07:49:47.511Z,38.34
2023-11-10T07:49:58.784Z,38.35
2023-11-10T07:50:10.317Z,38.34
2023-11-10T07:50:21.707Z,38.32
2023-11-10T07:50:33.240Z,38.30
2023-11-10T07:50:44.493Z,38.31
2023-11-10T07:50:56.026Z,38.30
2023-11-10T07:51:07.298Z,38.27
2023-11-10T07:51:18.909Z,38.27
2023-11-10T07:51:30.221Z,38.29
2023-11-10T07:51:41.795Z,38.27
2023-11-10T07:51:53.098Z,38.27
2023-11-10T07:52:04.597Z,38.28
2023-11-10T07:52:15.890Z,38.27
2023-11-10T07:52:27.431Z,38.24
2023-11-10T07:52:38.699Z,38.26
2023-11-10T07:52:50.230Z,38.26
2023-11-10T07:53:01.528Z,38.28
2023-11-10T07:53:13.073Z,38.25
2023-11-10T07:53:24.347Z,38.26
2023-11-10T07:53:35.884Z,38.25
2023-11-10T07:53:47.133Z,38.26
2023-11-10T07:53:58.669Z,38.25
2023-11-10T07:54:09.944Z,38.25
2023-11-10T07:54:21.576Z,38.25
2023-11-10T07:54:32.821Z,38.27
2023-11-10T07:54:44.423Z,38.27
2023-11-10T07:54:58.360Z,38.35
2023-11-10T07:55:08.014Z,38.34
2023-11-10T07:55:19.587Z,38.30
2023-11-10T07:55:30.862Z,38.27
2023-11-10T07:55:42.430Z,38.27
2023-11-10T07:55:54.265Z,38.27
2023-11-10T07:56:04.091Z,38.33
2023-11-10T07:56:15.614Z,38.30
2023-11-10T07:56:26.882Z,38.30
2023-11-10T07:56:38.448Z,38.30
2023-11-10T07:56:49.685Z,38.29
2023-11-10T07:57:01.208Z,38.27
2023-11-10T07:57:12.478Z,38.29
2023-11-10T07:57:24.012Z,38.31
2023-11-10T07:57:35.300Z,38.29
2023-11-10T07:57:46.934Z,38.28
2023-11-10T07:57:58.248Z,38.32
2023-11-10T07:58:09.754Z,38.30
2023-11-10T07:58:21.016Z,38.32
2023-11-10T07:58:32.534Z,38.33
2023-11-10T07:58:43.794Z,38.32
2023-11-10T07:58:55.349Z,38.31
2023-11-10T07:59:06.618Z,38.33
2023-11-10T07:59:18.148Z,38.31
2023-11-10T07:59:29.404Z,38.35
2023-11-10T07:59:40.931Z,38.34
2023-11-10T07:59:52.244Z,38.31
2023-11-10T08:00:03.764Z,38.35
2023-11-10T08:00:15.204Z,38.34
2023-11-10T08:00:26.733Z,38.35
2023-11-10T08:00:38.051Z,38.35
2023-11-10T08:00:49.641Z,38.36
2023-11-10T08:01:00.967Z,38.37
2023-11-10T08:01:12.469Z,38.34
2023-11-10T08:01:23.716Z,38.36
2023-11-10T08:01:35.263Z,38.36
2023-11-10T08:01:46.518Z,38.35
2023-11-10T08:01:58.043Z,38.34
2023-11-10T08:02:09.305Z,38.36
2023-11-10T08:02:21.829Z,38.37
2023-11-10T08:02:30.972Z,38.32
2023-11-10T08:02:42.812Z,38.35
2023-11-10T08:02:55.344Z,38.34
2023-11-10T08:03:06.969Z,38.33
2023-11-10T08:03:18.308Z,38.36
2023-11-10T08:03:30.014Z,38.37
2023-11-10T08:03:41.456Z,38.39
2023-11-10T08:03:53.148Z,38.37
2023-11-10T08:04:04.543Z,38.37
2023-11-10T08:04:16.165Z,38.36
2023-11-10T08:04:27.556Z,38.41
2023-11-10T08:04:39.346Z,38.38
2023-11-10T08:04:50.779Z,38.36
2023-11-10T08:05:02.369Z,38.39
2023-11-10T08:05:13.661Z,38.38
2023-11-10T08:05:25.281Z,38.38
2023-11-10T08:05:37.177Z,38.48
2023-11-10T08:05:48.479Z,38.44
2023-11-10T08:05:59.993Z,38.41
2023-11-10T08:06:11.255Z,38.38
2023-11-10T08:06:22.800Z,38.39
2023-11-10T08:06:34.095Z,38.41
2023-11-10T08:06:45.669Z,38.40
2023-11-10T08:06:56.952Z,38.40
2023-11-10T08:07:08.477Z,38.41
2023-11-10T08:07:19.768Z,38.41
2023-11-10T08:07:31.285Z,38.41
2023-11-10T08:07:42.593Z,38.38
2023-11-10T08:07:54.461Z,38.40
2023-11-10T08:08:05.779Z,38.44
2023-11-10T08:08:17.311Z,38.40
2023-11-10T08:08:28.577Z,38.43
2023-11-10T08:08:40.101Z,38.42
2023-11-10T08:08:51.500Z,38.39
2023-11-10T08:09:02.998Z,38.40
2023-11-10T08:09:14.270Z,38.43
2023-11-10T08:09:25.828Z,38.40
2023-11-10T08:09:37.113Z,38.45
2023-11-10T08:09:48.707Z,38.42
2023-11-10T08:10:01.476Z,38.42
2023-11-10T08:10:12.041Z,38.52
2023-11-10T08:10:23.571Z,38.46
2023-11-10T08:10:34.838Z,38.44
2023-11-10T08:10:46.362Z,38.44
2023-11-10T08:10:57.653Z,38.44
2023-11-10T08:11:09.198Z,38.43
2023-11-10T08:11:20.461Z,38.41
2023-11-10T08:11:42.084Z,38.43
2023-11-10T08:11:50.240Z,38.53
2023-11-10T08:11:55.871Z,38.57
2023-11-10T08:12:07.136Z,38.49
2023-11-10T08:12:18.672Z,38.46
2023-11-10T08:12:29.993Z,38.46
2023-11-10T08:12:41.521Z,38.45
2023-11-10T08:12:52.800Z,38.46
2023-11-10T08:13:04.317Z,38.44
2023-11-10T08:13:15.582Z,38.45
2023-11-10T08:13:27.098Z,38.46
2023-11-10T08:13:38.364Z,38.47
2023-11-10T08:13:49.904Z,38.45
2023-11-10T08:14:01.170Z,38.46
2023-11-10T08:14:12.672Z,38.45
2023-11-10T08:14:23.938Z,38.45
2023-11-10T08:14:35.489Z,38.46
2023-11-10T08:14:46.887Z,38.48
2023-11-10T08:14:58.471Z,38.46
2023-11-10T08:15:09.808Z,38.45
2023-11-10T08:15:21.434Z,38.47
2023-11-10T08:15:32.796Z,38.47
2023-11-10T08:15:44.372Z,38.44
2023-11-10T08:15:55.740Z,38.46
2023-11-10T08:16:07.391Z,38.49
2023-11-10T08:16:18.722Z,38.47
2023-11-10T08:16:30.326Z,38.47
2023-11-10T08:16:41.585Z,38.45
2023-11-10T08:16:53.876Z,38.47
2023-11-10T08:17:05.392Z,38.43
2023-11-10T08:17:16.734Z,38.45
2023-11-10T08:17:28.456Z,38.45
2023-11-10T08:17:39.883Z,38.49
2023-11-10T08:17:51.454Z,38.47
2023-11-10T08:18:02.711Z,38.47
2023-11-10T08:18:14.384Z,38.47
2023-11-10T08:18:25.700Z,38.48
2023-11-10T08:18:37.224Z,38.47
2023-11-10T08:18:48.497Z,38.49
2023-11-10T08:19:00.071Z,38.47
2023-11-10T08:19:11.337Z,38.45
2023-11-10T08:19:22.863Z,38.44
2023-11-10T08:19:34.109Z,38.47
2023-11-10T08:19:45.650Z,38.48
2023-11-10T08:19:56.939Z,38.47
2023-11-10T08:20:08.445Z,38.48
2023-11-10T08:20:19.744Z,38.49
2023-11-10T08:20:31.287Z,38.48
2023-11-10T08:20:42.556Z,38.45
2023-11-10T08:20:54.079Z,38.47
2023-11-10T08:21:05.382Z,38.46
2023-11-10T08:21:16.918Z,38.44
2023-11-10T08:21:28.192Z,38.49
2023-11-10T08:21:41.003Z,38.46
2023-11-10T08:21:50.400Z,38.43
2023-11-10T08:22:01.972Z,38.46
2023-11-10T08:22:13.273Z,38.47
2023-11-10T08:22:24.812Z,38.46
2023-11-10T08:22:36.082Z,38.45
2023-11-10T08:22:47.620Z,38.46
2023-11-10T08:22:58.880Z,38.47
2023-11-10T08:23:10.828Z,38.63
2023-11-10T08:23:22.130Z,38.55
2023-11-10T08:23:33.649Z,38.47
2023-11-10T08:23:44.917Z,38.48
2023-11-10T08:23:56.444Z,38.48
2023-11-10T08:24:07.714Z,38.46
2023-11-10T08:24:19.262Z,38.47
2023-11-10T08:24:30.615Z,38.45
2023-11-10T08:24:42.156Z,38.48
2023-11-10T08:24:53.417Z,38.48
2023-11-10T08:25:05.025Z,38.46
2023-11-10T08:25:16.309Z,38.48
2023-11-10T08:25:27.831Z,38.47
2023-11-10T08:25:39.094Z,38.48
2023-11-10T08:25:50.627Z,38.47
2023-11-10T08:26:01.891Z,38.48
2023-11-10T08:26:13.419Z,38.47
2023-11-10T08:26:24.699Z,38.47
2023-11-10T08:26:36.236Z,38.47
2023-11-10T08:26:47.496Z,38.47
2023-11-10T08:26:59.043Z,38.46
2023-11-10T08:27:10.306Z,38.47
2023-11-10T08:27:21.871Z,38.47
2023-11-10T08:27:33.156Z,38.50
2023-11-10T08:27:44.724Z,38.45
2023-11-10T08:27:56.171Z,38.47
2023-11-10T08:28:07.700Z,38.46
2023-11-10T08:28:18.987Z,38.48
2023-11-10T08:28:30.490Z,38.49
2023-11-10T08:28:41.766Z,38.46
2023-11-10T08:28:53.341Z,38.46
2023-11-10T08:29:04.590Z,38.48
2023-11-10T08:29:16.126Z,38.47
2023-11-10T08:29:27.392Z,38.49
2023-11-10T08:29:38.913Z,38.49
2023-11-10T08:29:50.202Z,38.48
2023-11-10T08:30:01.750Z,38.46
2023-11-10T08:30:13.069Z,38.49
2023-11-10T08:30:24.650Z,38.49
2023-11-10T08:30:36.813Z,38.45
2023-11-10T08:30:48.208Z,38.45
2023-11-10T08:30:59.757Z,38.47
2023-11-10T08:31:11.066Z,38.48
2023-11-10T08:31:22.650Z,38.48
2023-11-10T08:31:33.975Z,38.48
2023-11-10T08:31:45.530Z,38.47
2023-11-10T08:31:56.809Z,38.48
2023-11-10T08:32:08.325Z,38.47
2023-11-10T08:32:19.641Z,38.45
2023-11-10T08:32:31.228Z,38.48
2023-11-10T08:32:42.567Z,38.46
2023-11-10T08:32:54.511Z,38.48
2023-11-10T08:33:05.866Z,38.46
2023-11-10T08:33:17.453Z,38.47
2023-11-10T08:33:28.912Z,38.45
2023-11-10T08:33:40.573Z,38.48
2023-11-10T08:33:51.975Z,38.48
2023-11-10T08:34:03.663Z,38.47
2023-11-10T08:34:14.999Z,38.46
2023-11-10T08:34:26.828Z,38.48
2023-11-10T08:34:38.126Z,38.49
2023-11-10T08:34:49.637Z,38.47
2023-11-10T08:35:00.929Z,38.46
2023-11-10T08:35:12.459Z,38.48
2023-11-10T08:35:23.731Z,38.46
2023-11-10T08:35:35.289Z,38.48
2023-11-10T08:35:46.623Z,38.49
2023-11-10T08:35:58.140Z,38.46
2023-11-10T08:36:09.470Z,38.47
2023-11-10T08:36:21.064Z,38.49
2023-11-10T08:36:32.331Z,38.48
2023-11-10T08:36:43.882Z,38.48
2023-11-10T08:36:55.199Z,38.44
2023-11-10T08:37:06.716Z,38.46
2023-11-10T08:37:17.978Z,38.45
2023-11-10T08:37:29.535Z,38.49
2023-11-10T08:37:40.816Z,38.49
2023-11-10T08:37:52.313Z,38.47
2023-11-10T08:38:03.667Z,38.46
2023-11-10T08:38:15.185Z,38.45
2023-11-10T08:38:26.452Z,38.47
2023-11-10T08:38:37.978Z,38.47
2023-11-10T08:38:49.247Z,38.46
2023-11-10T08:39:00.780Z,38.47
2023-11-10T08:39:12.081Z,38.47
2023-11-10T08:39:23.649Z,38.47
2023-11-10T08:39:34.909Z,38.48
2023-11-10T08:39:46.467Z,38.47
2023-11-10T08:39:57.741Z,38.48
2023-11-10T08:40:09.265Z,38.45
2023-11-10T08:40:20.528Z,38.46
2023-11-10T08:40:34.887Z,38.47
2023-11-10T08:40:42.554Z,38.52
2023-11-10T08:40:53.822Z,38.50
2023-11-10T08:41:05.356Z,38.49
2023-11-10T08:41:16.661Z,38.48
2023-11-10T08:41:28.166Z,38.46
2023-11-10T08:41:39.471Z,38.46
2023-11-10T08:41:50.996Z,38.46
2023-11-10T08:42:02.271Z,38.45
2023-11-10T08:42:13.819Z,38.45
2023-11-10T08:42:25.163Z,38.48
2023-11-10T08:42:36.707Z,38.45
2023-11-10T08:42:48.003Z,38.46
2023-11-10T08:42:59.550Z,38.48
2023-11-10T08:43:10.826Z,38.45
2023-11-10T08:43:22.354Z,38.45
2023-11-10T08:43:33.614Z,38.45
2023-11-10T08:43:45.138Z,38.46
2023-11-10T08:43:56.398Z,38.45
2023-11-10T08:44:07.920Z,38.46
2023-11-10T08:44:19.190Z,38.46
2023-11-10T08:44:30.733Z,38.45
2023-11-10T08:44:42.021Z,38.45
2023-11-10T08:44:53.559Z,38.45
2023-11-10T08:45:04.824Z,38.47
2023-11-10T08:45:17.169Z,38.45
2023-11-10T08:45:26.479Z,38.40
2023-11-10T08:45:38.224Z,38.45
2023-11-10T08:45:49.722Z,38.48
2023-11-10T08:46:01.327Z,38.44
2023-11-10T08:46:12.701Z,38.47
2023-11-10T08:46:24.337Z,38.46
2023-11-10T08:46:35.698Z,38.48
2023-11-10T08:46:47.281Z,38.47
2023-11-10T08:46:58.592Z,38.48
2023-11-10T08:47:10.578Z,38.45
2023-11-10T08:47:21.904Z,38.48
2023-11-10T08:47:33.466Z,38.46
2023-11-10T08:47:44.776Z,38.45
2023-11-10T08:47:56.297Z,38.46
2023-11-10T08:48:07.581Z,38.44
2023-11-10T08:48:19.103Z,38.45
2023-11-10T08:48:30.392Z,38.46
2023-11-10T08:48:41.955Z,38.45
2023-11-10T08:48:53.269Z,38.44
2023-11-10T08:49:04.877Z,38.46
2023-11-10T08:49:16.174Z,38.43
2023-11-10T08:49:27.720Z,38.46
2023-11-10T08:49:39.088Z,38.42
2023-11-10T08:49:50.628Z,38.43
2023-11-10T08:50:01.892Z,38.43
2023-11-10T08:50:13.430Z,38.43
2023-11-10T08:50:24.687Z,38.46
2023-11-10T08:50:36.845Z,38.45
2023-11-10T08:50:48.381Z,38.41
2023-11-10T08:50:59.648Z,38.42
2023-11-10T08:51:11.288Z,38.46
2023-11-10T08:51:22.520Z,38.42
2023-11-10T08:51:34.186Z,38.42
2023-11-10T08:51:45.570Z,38.44
2023-11-10T08:51:57.848Z,38.46
2023-11-10T08:52:09.420Z,38.41
2023-11-10T08:52:20.693Z,38.42
2023-11-10T08:52:32.213Z,38.44
2023-11-10T08:52:43.546Z,38.44
2023-11-10T08:52:55.079Z,38.44
2023-11-10T08:53:06.389Z,38.42
2023-11-10T08:53:17.935Z,38.42
2023-11-10T08:53:29.225Z,38.42
2023-11-10T08:53:40.760Z,38.44
2023-11-10T08:53:52.053Z,38.45
2023-11-10T08:54:03.614Z,38.44
2023-11-10T08:54:14.851Z,38.42
2023-11-10T08:54:26.395Z,38.44
2023-11-10T08:54:37.696Z,38.43
2023-11-10T08:54:49.275Z,38.44
2023-11-10T08:55:00.586Z,38.45
2023-11-10T08:55:12.146Z,38.43
2023-11-10T08:55:23.457Z,38.43
2023-11-10T08:55:35.027Z,38.43
2023-11-10T08:55:46.303Z,38.45
2023-11-10T08:55:57.837Z,38.45
2023-11-10T08:56:09.161Z,38.43
2023-11-10T08:56:20.702Z,38.43
2023-11-10T08:56:31.974Z,38.42
2023-11-10T08:56:43.519Z,38.45
2023-11-10T08:56:54.817Z,38.45
2023-11-10T08:57:06.342Z,38.43
2023-11-10T08:57:17.616Z,38.45
2023-11-10T08:57:29.197Z,38.44
2023-11-10T08:57:40.507Z,38.46
2023-11-10T08:57:52.124Z,38.44
2023-11-10T08:58:03.491Z,38.44
2023-11-10T08:58:15.015Z,38.43
2023-11-10T08:58:26.282Z,38.43
2023-11-10T08:58:38.325Z,38.44
2023-11-10T08:58:49.922Z,38.42
2023-11-10T08:59:01.201Z,38.42
2023-11-10T08:59:12.730Z,38.44
2023-11-10T08:59:24.037Z,38.43
2023-11-10T08:59:35.585Z,38.45
2023-11-10T08:59:46.960Z,38.43
2023-11-10T08:59:58.509Z,38.43
2023-11-10T09:00:09.826Z,38.44
2023-11-10T09:00:21.517Z,38.42
2023-11-10T09:00:32.825Z,38.43
2023-11-10T09:00:44.416Z,38.42
2023-11-10T09:00:55.741Z,38.44
2023-11-10T09:01:07.336Z,38.41
2023-11-10T09:01:18.675Z,38.42
2023-11-10T09:01:30.194Z,38.43
2023-11-10T09:01:41.538Z,38.43
2023-11-10T09:01:53.131Z,38.44
2023-11-10T09:02:04.594Z,38.43
2023-11-10T09:02:16.103Z,38.45
2023-11-10T09:02:27.538Z,38.46
2023-11-10T09:02:39.104Z,38.40
2023-11-10T09:02:50.379Z,38.45
2023-11-10T09:03:02.027Z,38.43
2023-11-10T09:03:13.470Z,38.44
2023-11-10T09:03:25.189Z,38.43
2023-11-10T09:03:37.045Z,38.53
2023-11-10T09:03:48.486Z,38.45
2023-11-10T09:04:11.770Z,38.44
2023-11-10T09:04:21.219Z,38.53
2023-11-10T09:04:25.429Z,38.57
2023-11-10T09:04:34.945Z,38.48
2023-11-10T09:04:46.538Z,38.43
2023-11-10T09:04:57.891Z,38.44
2023-11-10T09:05:09.539Z,38.44
2023-11-10T09:05:20.855Z,38.44
2023-11-10T09:05:32.370Z,38.43
2023-11-10T09:05:43.649Z,38.42
2023-11-10T09:05:55.171Z,38.44
2023-11-10T09:06:06.472Z,38.42
2023-11-10T09:06:18.033Z,38.43
2023-11-10T09:06:29.320Z,38.45
2023-11-10T09:06:40.885Z,38.43
2023-11-10T09:06:52.292Z,38.43
2023-11-10T09:07:07.335Z,38.45
2023-11-10T09:07:15.085Z,38.52
2023-11-10T09:07:26.350Z,38.45
2023-11-10T09:07:37.877Z,38.43
2023-11-10T09:07:49.952Z,38.45
2023-11-10T09:08:01.472Z,38.45
2023-11-10T09:08:12.741Z,38.44
2023-11-10T09:08:24.272Z,38.41
2023-11-10T09:08:35.571Z,38.42
2023-11-10T09:08:47.100Z,38.44
2023-11-10T09:08:58.363Z,38.42
2023-11-10T09:09:09.939Z,38.42
2023-11-10T09:09:21.206Z,38.42
2023-11-10T09:09:32.756Z,38.43
2023-11-10T09:09:44.034Z,38.44
2023-11-10T09:09:55.568Z,38.43
2023-11-10T09:10:06.866Z,38.42
2023-11-10T09:10:18.379Z,38.42
2023-11-10T09:10:29.645Z,38.43
2023-11-10T09:10:41.173Z,38.42
2023-11-10T09:10:52.449Z,38.43
2023-11-10T09:11:03.988Z,38.42
2023-11-10T09:11:15.272Z,38.41
2023-11-10T09:11:26.786Z,38.42
2023-11-10T09:11:38.066Z,38.42
2023-11-10T09:11:49.576Z,38.42
2023-11-10T09:12:00.813Z,38.42
2023-11-10T09:12:12.388Z,38.40
2023-11-10T09:12:23.687Z,38.43
2023-11-10T09:12:35.249Z,38.38
2023-11-10T09:12:46.574Z,38.41
2023-11-10T09:12:58.118Z,38.42
2023-11-10T09:13:09.351Z,38.43
2023-11-10T09:13:20.183Z,38.47
2023-11-10T09:13:31.721Z,38.43
2023-11-10T09:13:42.983Z,38.42
2023-11-10T09:13:54.506Z,38.43
2023-11-10T09:14:05.783Z,38.39
2023-11-10T09:14:17.318Z,38.40
2023-11-10T09:14:28.618Z,38.42
2023-11-10T09:14:40.153Z,38.42
2023-11-10T09:14:51.412Z,38.42
2023-11-10T09:15:02.948Z,38.40
2023-11-10T09:15:14.219Z,38.41
2023-11-10T09:15:25.858Z,38.42
2023-11-10T09:15:37.184Z,38.41
2023-11-10T09:15:56.863Z,38.41
2023-11-10T09:16:02.724Z,38.51
2023-11-10T09:16:12.279Z,38.46
2023-11-10T09:16:23.926Z,38.42
2023-11-10T09:16:35.324Z,38.42
2023-11-10T09:16:47.203Z,38.40
2023-11-10T09:16:58.929Z,38.37
2023-11-10T09:17:10.199Z,38.40
2023-11-10T09:17:21.740Z,38.42
2023-11-10T09:17:33.054Z,38.43
2023-11-10T09:17:44.699Z,38.41
2023-11-10T09:17:55.986Z,38.41
2023-11-10T09:18:07.551Z,38.40
2023-11-10T09:18:18.807Z,38.39
2023-11-10T09:18:30.381Z,38.41
2023-11-10T09:18:41.708Z,38.39
2023-11-10T09:18:53.252Z,38.40
2023-11-10T09:19:04.590Z,38.40
2023-11-10T09:19:16.144Z,38.39
2023-11-10T09:19:27.428Z,38.41
2023-11-10T09:19:39.001Z,38.41
2023-11-10T09:19:50.248Z,38.40
2023-11-10T09:20:03.933Z,38.40
2023-11-10T09:20:12.628Z,38.45
2023-11-10T09:20:23.910Z,38.44
2023-11-10T09:20:35.457Z,38.40
2023-11-10T09:20:46.748Z,38.40
2023-11-10T09:20:58.528Z,38.41
2023-11-10T09:21:09.793Z,38.42
2023-11-10T09:21:21.387Z,38.40
2023-11-10T09:21:33.086Z,38.40
2023-11-10T09:21:44.734Z,38.41
2023-11-10T09:21:56.021Z,38.39
2023-11-10T09:22:07.558Z,38.41
2023-11-10T09:22:18.852Z,38.41
2023-11-10T09:22:30.408Z,38.39
2023-11-10T09:22:41.745Z,38.39
2023-11-10T09:22:53.318Z,38.39
2023-11-10T09:23:04.589Z,38.38
2023-11-10T09:23:16.204Z,38.39
2023-11-10T09:23:27.441Z,38.38
2023-11-10T09:23:38.984Z,38.38
2023-11-10T09:23:50.313Z,38.38
2023-11-10T09:24:01.820Z,38.39
2023-11-10T09:24:13.080Z,38.39
2023-11-10T09:24:24.665Z,38.39
2023-11-10T09:24:36.020Z,38.40
2023-11-10T09:24:47.643Z,38.38
2023-11-10T09:24:58.971Z,38.38
2023-11-10T09:25:10.495Z,38.37
2023-11-10T09:25:22.023Z,38.37
2023-11-10T09:25:33.672Z,38.40
2023-11-10T09:25:44.914Z,38.38
2023-11-10T09:25:56.440Z,38.40
2023-11-10T09:26:07.706Z,38.36
2023-11-10T09:26:19.240Z,38.37
2023-11-10T09:26:30.505Z,38.40
2023-11-10T09:26:42.045Z,38.39
2023-11-10T09:26:53.342Z,38.38
2023-11-10T09:27:04.875Z,38.37
2023-11-10T09:27:16.151Z,38.40
2023-11-10T09:27:27.708Z,38.36
2023-11-10T09:27:39.003Z,38.39
2023-11-10T09:27:50.586Z,38.36
2023-11-10T09:28:05.346Z,38.37
2023-11-10T09:28:13.115Z,38.53
2023-11-10T09:28:24.405Z,38.44
2023-11-10T09:28:36.040Z,38.40
2023-11-10T09:28:47.305Z,38.39
2023-11-10T09:28:58.862Z,38.39
2023-11-10T09:29:10.218Z,38.37
2023-11-10T09:29:21.770Z,38.37
2023-11-10T09:29:33.026Z,38.37
2023-11-10T09:29:44.603Z,38.36
2023-11-10T09:29:55.828Z,38.38
2023-11-10T09:30:07.365Z,38.38
2023-11-10T09:30:18.640Z,38.39
2023-11-10T09:30:30.247Z,38.36
2023-11-10T09:30:41.576Z,38.38
2023-11-10T09:30:53.081Z,38.35
2023-11-10T09:31:04.369Z,38.36
2023-11-10T09:31:16.910Z,38.37
2023-11-10T09:31:26.182Z,38.33
2023-11-10T09:31:37.746Z,38.35
2023-11-10T09:31:49.056Z,38.36
2023-11-10T09:32:00.625Z,38.35
2023-11-10T09:32:12.041Z,38.37
2023-11-10T09:32:23.611Z,38.39
2023-11-10T09:32:34.898Z,38.36
2023-11-10T09:32:46.426Z,38.35
2023-11-10T09:32:57.807Z,38.34
2023-11-10T09:33:09.489Z,38.36
2023-11-10T09:33:20.742Z,38.37
2023-11-10T09:33:32.325Z,38.37
2023-11-10T09:33:43.585Z,38.34
2023-11-10T09:33:55.202Z,38.36
2023-11-10T09:34:06.535Z,38.37
2023-11-10T09:34:18.110Z,38.37
2023-11-10T09:34:29.411Z,38.35
2023-11-10T09:34:40.946Z,38.35
2023-11-10T09:34:52.250Z,38.39
2023-11-10T09:35:03.780Z,38.35
2023-11-10T09:35:15.323Z,38.36
2023-11-10T09:35:26.956Z,38.34
2023-11-10T09:35:38.219Z,38.35
2023-11-10T09:35:49.751Z,38.35
2023-11-10T09:36:01.074Z,38.35
2023-11-10T09:36:12.574Z,38.32
2023-11-10T09:36:23.874Z,38.37
2023-11-10T09:36:35.596Z,38.34
2023-11-10T09:36:46.968Z,38.36
2023-11-10T09:36:58.577Z,38.37
2023-11-10T09:37:09.839Z,38.34
2023-11-10T09:37:21.365Z,38.36
2023-11-10T09:37:32.631Z,38.34
2023-11-10T09:37:44.210Z,38.35
2023-11-10T09:37:55.536Z,38.35
2023-11-10T09:38:07.066Z,38.36
2023-11-10T09:38:18.431Z,38.35
2023-11-10T09:38:29.973Z,38.35
2023-11-10T09:38:41.261Z,38.36
2023-11-10T09:38:52.811Z,38.36
2023-11-10T09:39:04.102Z,38.34
2023-11-10T09:39:15.646Z,38.35
2023-11-10T09:39:26.948Z,38.33
2023-11-10T09:39:38.510Z,38.35
2023-11-10T09:39:49.887Z,38.35
2023-11-10T09:40:01.591Z,38.37
2023-11-10T09:40:12.889Z,38.33
2023-11-10T09:40:24.795Z,38.51
2023-11-10T09:40:36.105Z,38.43
2023-11-10T09:40:47.690Z,38.36
2023-11-10T09:40:59.058Z,38.36
2023-11-10T09:41:10.575Z,38.35
2023-11-10T09:41:21.842Z,38.36
2023-11-10T09:41:33.372Z,38.36
2023-11-10T09:41:44.648Z,38.38
2023-11-10T09:41:56.593Z,38.50
2023-11-10T09:42:07.859Z,38.45
2023-11-10T09:42:19.383Z,38.39
2023-11-10T09:42:30.878Z,38.37
2023-11-10T09:42:42.471Z,38.36
2023-11-10T09:42:53.839Z,38.37
2023-11-10T09:43:05.363Z,38.37
2023-11-10T09:43:16.591Z,38.33
2023-11-10T09:43:28.123Z,38.37
2023-11-10T09:43:39.425Z,38.37
2023-11-10T09:43:50.963Z,38.35
2023-11-10T09:44:02.230Z,38.35
2023-11-10T09:44:13.774Z,38.35
2023-11-10T09:44:25.028Z,38.34
2023-11-10T09:44:36.553Z,38.36
2023-11-10T09:44:47.829Z,38.34
2023-11-10T09:44:59.406Z,38.35
2023-11-10T09:45:10.650Z,38.34
2023-11-10T09:45:23.592Z,38.49
2023-11-10T09:45:32.774Z,38.39
2023-11-10T09:45:44.312Z,38.37
2023-11-10T09:45:55.674Z,38.35
2023-11-10T09:46:07.305Z,38.36
2023-11-10T09:46:18.733Z,38.36
2023-11-10T09:46:30.344Z,38.35
2023-11-10T09:46:41.702Z,38.36
2023-11-10T09:46:53.242Z,38.34
2023-11-10T09:47:04.550Z,38.35
2023-11-10T09:47:16.070Z,38.33
2023-11-10T09:47:27.610Z,38.35
2023-11-10T09:47:39.326Z,38.34
2023-11-10T09:47:50.684Z,38.37
2023-11-10T09:48:02.301Z,38.34
2023-11-10T09:48:13.632Z,38.34
2023-11-10T09:48:25.149Z,38.34
2023-11-10T09:48:36.397Z,38.36
2023-11-10T09:48:48.028Z,38.37
2023-11-10T09:48:59.371Z,38.35
2023-11-10T09:49:10.914Z,38.35
2023-11-10T09:49:22.178Z,38.35
2023-11-10T09:49:33.731Z,38.36
2023-11-10T09:49:45.492Z,38.35
2023-11-10T09:49:57.001Z,38.36
2023-11-10T09:50:08.350Z,38.33
2023-11-10T09:50:19.845Z,38.34
2023-11-10T09:50:31.118Z,38.32
2023-11-10T09:50:42.645Z,38.35
2023-11-10T09:50:53.919Z,38.35
2023-11-10T09:51:05.446Z,38.35
2023-11-10T09:51:16.697Z,38.33
2023-11-10T09:51:28.301Z,38.33
2023-11-10T09:51:39.622Z,38.34
2023-11-10T09:51:51.195Z,38.35
2023-11-10T09:52:02.488Z,38.34
2023-11-10T09:52:14.002Z,38.36
2023-11-10T09:52:25.255Z,38.32
2023-11-10T09:52:36.786Z,38.33
2023-11-10T09:52:48.057Z,38.34
2023-11-10T09:52:59.617Z,38.33
2023-11-10T09:53:10.868Z,38.33
2023-11-10T09:53:22.395Z,38.32
2023-11-10T09:53:33.966Z,38.34
2023-11-10T09:53:45.505Z,38.34
2023-11-10T09:53:56.801Z,38.31
2023-11-10T09:54:08.339Z,38.34
2023-11-10T09:54:19.668Z,38.34
2023-11-10T09:54:31.884Z,38.33
2023-11-10T09:54:43.406Z,38.29
2023-11-10T09:54:54.738Z,38.30
2023-11-10T09:55:06.293Z,38.31
2023-11-10T09:55:17.630Z,38.36
2023-11-10T09:55:29.151Z,38.33
2023-11-10T09:55:40.439Z,38.32
2023-11-10T09:55:51.995Z,38.32
2023-11-10T09:56:03.267Z,38.30
2023-11-10T09:56:14.801Z,38.30
2023-11-10T09:56:26.077Z,38.29
2023-11-10T09:56:37.645Z,38.30
2023-11-10T09:56:48.925Z,38.31
2023-11-10T09:57:00.475Z,38.31
2023-11-10T09:57:11.718Z,38.30
2023-11-10T09:57:26.145Z,38.29
2023-11-10T09:57:34.584Z,38.38
2023-11-10T09:57:45.904Z,38.36
2023-11-10T09:57:57.540Z,38.31
2023-11-10T09:58:08.814Z,38.32
2023-11-10T09:58:20.344Z,38.32
2023-11-10T09:58:31.623Z,38.32
2023-11-10T09:58:43.131Z,38.32
2023-11-10T09:58:54.425Z,38.33
2023-11-10T09:59:05.948Z,38.30
2023-11-10T09:59:17.232Z,38.30
2023-11-10T09:59:28.754Z,38.31
2023-11-10T09:59:40.037Z,38.34
2023-11-10T09:59:51.554Z,38.33
2023-11-10T10:00:02.832Z,38.31
2023-11-10T10:00:14.565Z,38.31
2023-11-10T10:00:26.061Z,38.35
2023-11-10T10:00:37.579Z,38.33
2023-11-10T10:00:48.881Z,38.34
2023-11-10T10:01:01.397Z,38.31
2023-11-10T10:01:10.659Z,38.26
2023-11-10T10:01:22.163Z,38.30
2023-11-10T10:01:33.435Z,38.30
2023-11-10T10:01:44.982Z,38.31
2023-11-10T10:01:56.343Z,38.30
2023-11-10T10:02:07.983Z,38.32
2023-11-10T10:02:19.254Z,38.34
2023-11-10T10:02:30.786Z,38.33
2023-11-10T10:02:42.187Z,38.30
2023-11-10T10:02:53.976Z,38.30
2023-11-10T10:03:05.436Z,38.33
2023-11-10T10:03:17.141Z,38.32
2023-11-10T10:03:28.659Z,38.33
2023-11-10T10:03:40.550Z,38.33
2023-11-10T10:03:51.937Z,38.33
2023-11-10T10:04:03.643Z,38.30
2023-11-10T10:04:15.002Z,38.33
2023-11-10T10:04:26.685Z,38.30
2023-11-10T10:04:37.981Z,38.33
2023-11-10T10:04:49.530Z,38.31
2023-11-10T10:05:00.789Z,38.28
2023-11-10T10:05:12.335Z,38.31
2023-11-10T10:05:23.609Z,38.32
2023-11-10T10:05:35.113Z,38.29
2023-11-10T10:05:46.379Z,38.29
2023-11-10T10:05:57.920Z,38.32
2023-11-10T10:06:09.192Z,38.30
2023-11-10T10:06:20.739Z,38.32
2023-11-10T10:06:32.018Z,38.30
2023-11-10T10:06:43.574Z,38.29
2023-11-10T10:06:54.862Z,38.30
2023-11-10T10:07:06.397Z,38.29
2023-11-10T10:07:17.671Z,38.32
2023-11-10T10:07:29.194Z,38.29
2023-11-10T10:07:40.478Z,38.32
2023-11-10T10:07:52.051Z,38.29
2023-11-10T10:08:03.310Z,38.29
2023-11-10T10:08:14.864Z,38.30
2023-11-10T10:08:26.121Z,38.28
2023-11-10T10:08:37.662Z,38.29
2023-11-10T10:08:48.948Z,38.28
2023-11-10T10:09:00.454Z,38.28
2023-11-10T10:09:11.724Z,38.29
2023-11-10T10:09:25.415Z,38.31
2023-11-10T10:09:34.680Z,38.27
2023-11-10T10:09:46.243Z,38.31
2023-11-10T10:09:57.650Z,38.30
2023-11-10T10:10:09.176Z,38.30
2023-11-10T10:10:20.457Z,38.29
2023-11-10T10:10:32.001Z,38.30
2023-11-10T10:10:43.270Z,38.29
2023-11-10T10:10:54.807Z,38.29
2023-11-10T10:11:06.041Z,38.33
2023-11-10T10:11:17.567Z,38.29
2023-11-10T10:11:28.870Z,38.28
2023-11-10T10:11:40.406Z,38.30
2023-11-10T10:11:51.711Z,38.30
2023-11-10T10:12:03.260Z,38.30
2023-11-10T10:12:14.508Z,38.31
2023-11-10T10:12:26.193Z,38.30
2023-11-10T10:12:37.529Z,38.33
2023-11-10T10:12:49.160Z,38.29
2023-11-10T10:13:00.436Z,38.31
2023-11-10T10:13:11.960Z,38.29
2023-11-10T10:13:23.222Z,38.29
2023-11-10T10:13:34.769Z,38.28
2023-11-10T10:13:46.035Z,38.31
2023-11-10T10:13:57.539Z,38.31
2023-11-10T10:14:08.806Z,38.28
2023-11-10T10:14:20.329Z,38.29